Koyo — JD2279 — position and weather

sailwx.info

Track history (hours):
 
Tides and Currents Weather Stations Pressure Air Temp Water Temp Dewpoint Dewpoint Depression Visibility Wind Speed Wind Dir Waves Ship Positions

Koyo

Last reported at 2015-May-22 15:33 UTC. Time now 2015-May-22 16:07 UTC.
Position N 34°37' E 135°03'.

Length 80 m; draft 3.6 m.

Type: Cargo ship. MMSI: 431301812.

Date/timePositionNaut miles runAvg speedWind from/ knotsBaromVisibWave heightAir tempDewpointWater temp
2015-May-22 15:33N 34°37' E 135°03'1010.3
2015-May-22 14:33N 34°40' E 135°15'0 0.2
2015-May-22 13:33N 34°40' E 135°14'0 0.0
2015-May-22 12:33N 34°40' E 135°14'0 0.0
2015-May-22 11:33N 34°40' E 135°14'0 0.0
2015-May-22 10:33N 34°40' E 135°14'0 0.0
2015-May-22 09:33N 34°40' E 135°14'0 0.0
2015-May-22 08:33N 34°40' E 135°14'0 0.0
2015-May-22 07:33N 34°40' E 135°14'3 3.4
2015-May-22 06:33N 34°37' E 135°12'1413.8
2015-May-22 05:33N 34°36' E 134°55'22911.4
2015-May-21 09:32N 33°50' E 130°24'1111.2
2015-May-21 08:33N 33°41' E 130°16'7 6.9
2015-May-21 07:32N 33°39' E 130°25'0 0.0
2015-May-21 06:33N 33°39' E 130°25'2 2.3
2015-May-21 05:33N 33°38' E 130°22'8 8.3
2015-May-21 04:33N 33°46' E 130°20'23110.9
2015-May-20 07:18N 34°36' E 134°53'7 9.8
2015-May-20 06:33N 34°37' E 135°02'1110.9
2015-May-20 05:33N 34°38' E 135°15'1 1.4
2015-May-20 04:33N 34°40' E 135°14'0 0.0
2015-May-20 03:33N 34°40' E 135°14'0 0.1
2015-May-20 02:33N 34°40' E 135°14'0 0.0
2015-May-20 01:33N 34°40' E 135°14'2 2.2
2015-May-20 00:33N 34°39' E 135°17'7 6.6
2015-May-19 23:32N 34°38' E 135°25'7 6.7
2015-May-19 22:33N 34°35' E 135°18'10 9.9
2015-May-19 21:33N 34°35' E 135°06'1312.2
2015-May-19 20:31N 34°34' E 134°50'2 0.1
2015-May-18 07:33N 34°35' E 134°52'1110.9
2015-May-18 06:33N 34°36' E 135°05'9 8.5
2015-May-18 05:33N 34°39' E 135°14'0 0.0
2015-May-18 04:33N 34°39' E 135°14'0 0.0
2015-May-18 03:33N 34°39' E 135°14'0 0.0
2015-May-18 02:33N 34°39' E 135°14'2 2.0
2015-May-18 01:23N 34°41' E 135°13'0 0.0
2015-May-18 00:29N 34°41' E 135°13'0 0.0
2015-May-17 23:29N 34°41' E 135°13'0 0.0
2015-May-17 22:29N 34°41' E 135°13'0 0.0
2015-May-17 21:29N 34°41' E 135°13'0 0.0
2015-May-17 20:29N 34°41' E 135°13'0 0.0
2015-May-17 19:29N 34°41' E 135°13'0 0.0
2015-May-17 18:29N 34°41' E 135°13'0 0.0
2015-May-17 17:29N 34°41' E 135°13'0 0.0
2015-May-17 16:29N 34°41' E 135°13'0 0.0
2015-May-17 15:29N 34°41' E 135°13'0 0.0
2015-May-17 14:29N 34°41' E 135°13'0 0.0
2015-May-17 13:23N 34°41' E 135°13'0 0.0
2015-May-17 12:29N 34°41' E 135°13'0 0.0
2015-May-17 11:29N 34°41' E 135°13'0 0.0
2015-May-17 10:29N 34°41' E 135°13'0 0.0
2015-May-17 09:29N 34°41' E 135°13'0 0.1
2015-May-17 08:33N 34°41' E 135°13'1110.7
2015-May-17 07:33N 34°31' E 135°11'1412.8
2015-May-17 06:30N 34°20' E 135°01'1111.5
2015-May-17 05:33N 34°10' E 134°57'1313.1
2015-May-17 04:33N 33°57' E 134°53'17012.7
2015-May-16 15:07N 32°16' E 132°10'713.2
2015-May-16 14:34N 32°13' E 132°02'1414.0
2015-May-16 13:33N 32°04' E 131°50'190 5.9
2015-May-15 05:22N 34°05' E 134°45'1113.5
2015-May-15 04:32N 34°13' E 134°55'1313.7
2015-May-15 03:34N 34°24' E 135°02'1413.5
2015-May-15 02:33N 34°35' E 135°12'5 4.5
2015-May-15 01:33N 34°39' E 135°14'0 0.0
2015-May-15 00:33N 34°40' E 135°14'0 0.0
2015-May-14 23:33N 34°40' E 135°14'1 0.8
2015-May-14 22:22N 34°39' E 135°15'0 0.0
2015-May-14 21:28N 34°39' E 135°15'0 0.0
2015-May-14 20:28N 34°39' E 135°15'5 5.7
2015-May-14 19:33N 34°35' E 135°11'9 9.5
2015-May-14 18:33N 34°37' E 134°59'1211.2
2015-May-14 17:31N 34°32' E 134°46'10 0.3
2015-May-13 06:32N 34°37' E 134°57'1212.6
2015-May-13 05:33N 34°37' E 135°13'3 2.5
2015-May-13 04:33N 34°39' E 135°15'0 0.0
2015-May-13 03:33N 34°39' E 135°15'0 0.0
2015-May-13 02:33N 34°39' E 135°15'1 0.8
2015-May-13 01:33N 34°39' E 135°15'0 0.0
2015-May-13 00:28N 34°39' E 135°15'6 6.6
2015-May-12 23:33N 34°36' E 135°09'1111.2
2015-May-12 22:33N 34°35' E 134°55'  
Track history (hours):
 
Tides and Currents Weather Stations Pressure Air Temp Water Temp Dewpoint Dewpoint Depression Visibility Wind Speed Wind Dir Waves Ship Positions

Koyo

Last reported at 2015-May-22 15:33 UTC. Time now 2015-May-22 16:07 UTC.
Position N 34°37' E 135°03'.

Length 80 m; draft 3.6 m.

Type: Cargo ship. MMSI: 431301812.

Date/timePositionNaut miles runAvg speedWind from/ knotsBaromVisibWave heightAir tempDewpointWater temp
2015-May-22 15:33N 34°37' E 135°03'1010.3
2015-May-22 14:33N 34°40' E 135°15'0 0.2
2015-May-22 13:33N 34°40' E 135°14'0 0.0
2015-May-22 12:33N 34°40' E 135°14'0 0.0
2015-May-22 11:33N 34°40' E 135°14'0 0.0
2015-May-22 10:33N 34°40' E 135°14'0 0.0
2015-May-22 09:33N 34°40' E 135°14'0 0.0
2015-May-22 08:33N 34°40' E 135°14'0 0.0
2015-May-22 07:33N 34°40' E 135°14'3 3.4
2015-May-22 06:33N 34°37' E 135°12'1413.8
2015-May-22 05:33N 34°36' E 134°55'22911.4
2015-May-21 09:32N 33°50' E 130°24'1111.2
2015-May-21 08:33N 33°41' E 130°16'7 6.9
2015-May-21 07:32N 33°39' E 130°25'0 0.0
2015-May-21 06:33N 33°39' E 130°25'2 2.3
2015-May-21 05:33N 33°38' E 130°22'8 8.3
2015-May-21 04:33N 33°46' E 130°20'23110.9
2015-May-20 07:18N 34°36' E 134°53'7 9.8
2015-May-20 06:33N 34°37' E 135°02'1110.9
2015-May-20 05:33N 34°38' E 135°15'1 1.4
2015-May-20 04:33N 34°40' E 135°14'0 0.0
2015-May-20 03:33N 34°40' E 135°14'0 0.1
2015-May-20 02:33N 34°40' E 135°14'0 0.0
2015-May-20 01:33N 34°40' E 135°14'2 2.2
2015-May-20 00:33N 34°39' E 135°17'7 6.6
2015-May-19 23:32N 34°38' E 135°25'7 6.7
2015-May-19 22:33N 34°35' E 135°18'10 9.9
2015-May-19 21:33N 34°35' E 135°06'1312.2
2015-May-19 20:31N 34°34' E 134°50'2 0.1
2015-May-18 07:33N 34°35' E 134°52'1110.9
2015-May-18 06:33N 34°36' E 135°05'9 8.5
2015-May-18 05:33N 34°39' E 135°14'0 0.0
2015-May-18 04:33N 34°39' E 135°14'0 0.0
2015-May-18 03:33N 34°39' E 135°14'0 0.0
2015-May-18 02:33N 34°39' E 135°14'2 2.0
2015-May-18 01:23N 34°41' E 135°13'0 0.0
2015-May-18 00:29N 34°41' E 135°13'0 0.0
2015-May-17 23:29N 34°41' E 135°13'0 0.0
2015-May-17 22:29N 34°41' E 135°13'0 0.0
2015-May-17 21:29N 34°41' E 135°13'0 0.0
2015-May-17 20:29N 34°41' E 135°13'0 0.0
2015-May-17 19:29N 34°41' E 135°13'0 0.0
2015-May-17 18:29N 34°41' E 135°13'0 0.0
2015-May-17 17:29N 34°41' E 135°13'0 0.0
2015-May-17 16:29N 34°41' E 135°13'0 0.0
2015-May-17 15:29N 34°41' E 135°13'0 0.0
2015-May-17 14:29N 34°41' E 135°13'0 0.0
2015-May-17 13:23N 34°41' E 135°13'0 0.0
2015-May-17 12:29N 34°41' E 135°13'0 0.0
2015-May-17 11:29N 34°41' E 135°13'0 0.0
2015-May-17 10:29N 34°41' E 135°13'0 0.0
2015-May-17 09:29N 34°41' E 135°13'0 0.1
2015-May-17 08:33N 34°41' E 135°13'1110.7
2015-May-17 07:33N 34°31' E 135°11'1412.8
2015-May-17 06:30N 34°20' E 135°01'1111.5
2015-May-17 05:33N 34°10' E 134°57'1313.1
2015-May-17 04:33N 33°57' E 134°53'17012.7
2015-May-16 15:07N 32°16' E 132°10'713.2
2015-May-16 14:34N 32°13' E 132°02'1414.0
2015-May-16 13:33N 32°04' E 131°50'190 5.9
2015-May-15 05:22N 34°05' E 134°45'1113.5
2015-May-15 04:32N 34°13' E 134°55'1313.7
2015-May-15 03:34N 34°24' E 135°02'1413.5
2015-May-15 02:33N 34°35' E 135°12'5 4.5
2015-May-15 01:33N 34°39' E 135°14'0 0.0
2015-May-15 00:33N 34°40' E 135°14'0 0.0
2015-May-14 23:33N 34°40' E 135°14'1 0.8
2015-May-14 22:22N 34°39' E 135°15'0 0.0
2015-May-14 21:28N 34°39' E 135°15'0 0.0
2015-May-14 20:28N 34°39' E 135°15'5 5.7
2015-May-14 19:33N 34°35' E 135°11'9 9.5
2015-May-14 18:33N 34°37' E 134°59'1211.2
2015-May-14 17:31N 34°32' E 134°46'10 0.3
2015-May-13 06:32N 34°37' E 134°57'1212.6
2015-May-13 05:33N 34°37' E 135°13'3 2.5
2015-May-13 04:33N 34°39' E 135°15'0 0.0
2015-May-13 03:33N 34°39' E 135°15'0 0.0
2015-May-13 02:33N 34°39' E 135°15'1 0.8
2015-May-13 01:33N 34°39' E 135°15'0 0.0
2015-May-13 00:28N 34°39' E 135°15'6 6.6
2015-May-12 23:33N 34°36' E 135°09'1111.2
2015-May-12 22:33N 34°35' E 134°55'  

Dump ship's entire track history